createdAt,value
2022-12-31T00:00:38.252Z,11.85
2022-12-31T00:01:38.203Z,11.77
2022-12-31T00:02:38.280Z,11.82
2022-12-31T00:03:38.227Z,11.85
2022-12-31T00:04:38.167Z,11.87
2022-12-31T00:05:38.156Z,11.88
2022-12-31T00:06:38.141Z,11.87
2022-12-31T00:08:02.861Z,11.93
2022-12-31T00:09:02.850Z,11.87
2022-12-31T00:10:02.871Z,11.93
2022-12-31T00:11:02.829Z,11.88
2022-12-31T00:12:02.816Z,11.93
2022-12-31T00:13:02.806Z,11.87
2022-12-31T00:14:02.791Z,11.87
2022-12-31T00:15:02.788Z,11.88
2022-12-31T00:16:08.297Z,11.94
2022-12-31T00:17:02.793Z,11.94
2022-12-31T00:18:02.755Z,12.00
2022-12-31T00:19:02.739Z,11.97
2022-12-31T00:20:02.732Z,11.93
2022-12-31T00:21:02.719Z,11.94
2022-12-31T00:22:02.712Z,11.87
2022-12-31T00:23:02.697Z,11.93
2022-12-31T00:24:02.689Z,11.90
2022-12-31T00:25:02.675Z,11.94
2022-12-31T00:26:02.865Z,11.93
2022-12-31T00:27:02.651Z,11.96
2022-12-31T00:28:02.648Z,11.96
2022-12-31T00:29:02.647Z,11.97
2022-12-31T00:30:04.964Z,11.96
2022-12-31T00:31:02.666Z,11.93
2022-12-31T00:32:02.609Z,11.97
2022-12-31T00:33:02.601Z,12.00
2022-12-31T00:34:02.582Z,12.03
2022-12-31T00:35:02.579Z,12.01
2022-12-31T00:36:02.563Z,12.07
2022-12-31T00:37:02.543Z,12.08
2022-12-31T00:38:02.537Z,12.07
2022-12-31T00:39:02.522Z,12.08
2022-12-31T00:40:02.527Z,12.18
2022-12-31T00:41:02.516Z,12.21
2022-12-31T00:42:02.521Z,12.22
2022-12-31T00:43:02.477Z,12.25
2022-12-31T00:44:02.474Z,12.23
2022-12-31T00:45:02.467Z,12.16
2022-12-31T00:46:02.462Z,12.19
2022-12-31T00:47:02.434Z,12.19
2022-12-31T00:48:02.436Z,12.21
2022-12-31T00:49:02.407Z,12.23
2022-12-31T00:50:02.405Z,12.23
2022-12-31T00:51:02.388Z,12.25
2022-12-31T00:52:02.376Z,12.23
2022-12-31T00:53:02.366Z,12.25
2022-12-31T00:54:02.350Z,12.25
2022-12-31T00:55:02.352Z,12.23
2022-12-31T00:56:02.336Z,12.25
2022-12-31T00:57:02.320Z,12.25
2022-12-31T00:58:02.335Z,12.23
2022-12-31T00:59:02.325Z,12.19
2022-12-31T01:00:02.286Z,12.18
2022-12-31T01:01:02.404Z,12.18
2022-12-31T01:02:02.406Z,12.16
2022-12-31T01:03:02.354Z,12.13
2022-12-31T01:04:02.237Z,12.13
2022-12-31T01:05:02.242Z,12.16
2022-12-31T01:06:02.214Z,12.19
2022-12-31T01:07:02.203Z,12.25
2022-12-31T01:08:02.213Z,12.22
2022-12-31T01:09:02.238Z,12.25
2022-12-31T01:10:02.168Z,12.21
2022-12-31T01:11:02.162Z,12.15
2022-12-31T01:12:02.161Z,12.18
2022-12-31T01:13:02.169Z,12.21
2022-12-31T01:14:02.203Z,12.18
2022-12-31T01:15:02.136Z,12.15
2022-12-31T01:16:02.349Z,12.13
2022-12-31T01:17:02.089Z,12.13
2022-12-31T01:18:02.083Z,12.13
2022-12-31T01:19:02.067Z,12.15
2022-12-31T01:20:02.062Z,12.15
2022-12-31T01:21:02.047Z,12.15
2022-12-31T01:22:02.043Z,12.13
2022-12-31T01:23:02.021Z,12.11
2022-12-31T01:24:02.044Z,12.13
2022-12-31T01:25:02.003Z,12.08
2022-12-31T01:26:01.992Z,12.08
2022-12-31T01:27:01.979Z,12.07
2022-12-31T01:28:01.967Z,12.07
2022-12-31T01:29:01.968Z,12.04
2022-12-31T01:30:01.985Z,12.07
2022-12-31T01:31:01.966Z,12.05
2022-12-31T01:32:01.919Z,12.04
2022-12-31T01:33:01.906Z,12.05
2022-12-31T01:34:01.901Z,12.04
2022-12-31T01:35:01.893Z,12.00
2022-12-31T01:36:01.875Z,11.97
2022-12-31T01:37:01.864Z,12.00
2022-12-31T01:38:01.870Z,12.01
2022-12-31T01:39:01.849Z,12.03
2022-12-31T01:40:01.835Z,12.01
2022-12-31T01:41:01.840Z,12.03
2022-12-31T01:42:01.812Z,11.98
2022-12-31T01:43:01.802Z,12.03
2022-12-31T01:44:01.786Z,12.01
2022-12-31T01:45:01.779Z,12.03
2022-12-31T01:46:01.888Z,12.00
2022-12-31T01:47:01.769Z,12.05
2022-12-31T01:48:01.746Z,12.00
2022-12-31T01:49:01.744Z,12.03
2022-12-31T01:50:01.733Z,12.04
2022-12-31T01:51:01.720Z,12.04
2022-12-31T01:52:01.703Z,12.04
2022-12-31T01:53:01.698Z,12.04
2022-12-31T01:54:01.690Z,12.04
2022-12-31T01:55:01.667Z,12.05
2022-12-31T01:56:01.685Z,12.03
2022-12-31T01:57:01.654Z,12.05
2022-12-31T01:58:01.642Z,12.03
2022-12-31T01:59:01.626Z,12.04
2022-12-31T02:00:01.613Z,12.08
2022-12-31T02:01:01.660Z,12.08
2022-12-31T02:02:01.746Z,12.07
2022-12-31T02:03:01.621Z,12.07
2022-12-31T02:04:01.574Z,12.05
2022-12-31T02:05:01.559Z,12.04
2022-12-31T02:06:01.557Z,12.01
2022-12-31T02:07:01.542Z,12.00
2022-12-31T02:08:01.532Z,11.96
2022-12-31T02:09:01.517Z,11.98
2022-12-31T02:10:01.505Z,12.03
2022-12-31T02:11:01.500Z,12.01
2022-12-31T02:12:01.489Z,12.03
2022-12-31T02:13:01.474Z,12.04
2022-12-31T02:14:01.464Z,12.05
2022-12-31T02:15:01.454Z,12.05
2022-12-31T02:16:01.521Z,12.05
2022-12-31T02:17:01.439Z,12.11
2022-12-31T02:18:01.451Z,12.13
2022-12-31T02:19:01.408Z,12.08
2022-12-31T02:20:01.414Z,12.05
2022-12-31T02:21:01.393Z,12.08
2022-12-31T02:22:01.379Z,12.04
2022-12-31T02:23:01.365Z,12.07
2022-12-31T02:24:01.379Z,12.11
2022-12-31T02:25:01.344Z,12.11
2022-12-31T02:26:01.336Z,12.12
2022-12-31T02:27:01.318Z,12.15
2022-12-31T02:28:01.316Z,12.15
2022-12-31T02:29:01.300Z,12.18
2022-12-31T02:30:01.320Z,12.21
2022-12-31T02:31:01.325Z,12.19
2022-12-31T02:32:01.268Z,12.26
2022-12-31T02:33:02.741Z,12.29
2022-12-31T02:34:01.271Z,12.25
2022-12-31T02:35:01.237Z,12.22
2022-12-31T02:36:01.226Z,12.25
2022-12-31T02:37:01.231Z,12.21
2022-12-31T02:38:01.202Z,12.25
2022-12-31T02:39:01.191Z,12.25
2022-12-31T02:40:01.193Z,12.22
2022-12-31T02:41:01.172Z,12.30
2022-12-31T02:42:01.158Z,12.30
2022-12-31T02:43:01.151Z,12.26
2022-12-31T02:44:01.135Z,12.25
2022-12-31T02:45:01.125Z,12.22
2022-12-31T02:46:01.116Z,12.15
2022-12-31T02:47:01.122Z,12.16
2022-12-31T02:48:01.094Z,12.19
2022-12-31T02:49:01.083Z,12.16
2022-12-31T02:50:01.095Z,12.18
2022-12-31T02:51:01.080Z,12.21
2022-12-31T02:52:01.049Z,12.19
2022-12-31T02:53:01.040Z,12.19
2022-12-31T02:54:01.033Z,12.16
2022-12-31T02:55:01.018Z,12.15
2022-12-31T02:56:01.009Z,12.16
2022-12-31T02:57:01.026Z,12.18
2022-12-31T02:58:00.984Z,12.21
2022-12-31T02:59:00.979Z,12.16
2022-12-31T03:00:00.961Z,12.16
2022-12-31T03:01:01.087Z,12.15
2022-12-31T03:02:01.057Z,12.13
2022-12-31T03:03:00.930Z,12.13
2022-12-31T03:04:00.914Z,12.11
2022-12-31T03:05:00.910Z,12.12
2022-12-31T03:06:00.919Z,12.13
2022-12-31T03:07:00.892Z,12.07
2022-12-31T03:08:00.881Z,12.05
2022-12-31T03:09:00.864Z,12.08
2022-12-31T03:10:00.870Z,12.08
2022-12-31T03:11:00.846Z,12.11
2022-12-31T03:12:00.830Z,12.08
2022-12-31T03:13:00.820Z,12.11
2022-12-31T03:14:00.814Z,12.13
2022-12-31T03:15:00.799Z,12.13
2022-12-31T03:16:00.848Z,12.11
2022-12-31T03:17:00.777Z,12.05
2022-12-31T03:18:00.769Z,12.15
2022-12-31T03:19:00.755Z,12.12
2022-12-31T03:20:00.758Z,12.13
2022-12-31T03:21:00.738Z,12.11
2022-12-31T03:22:00.742Z,12.13
2022-12-31T03:23:00.722Z,12.15
2022-12-31T03:24:00.696Z,12.13
2022-12-31T03:25:00.693Z,12.16
2022-12-31T03:26:00.683Z,12.11
2022-12-31T03:27:00.679Z,12.12
2022-12-31T03:28:00.662Z,12.11
2022-12-31T03:29:00.650Z,12.05
2022-12-31T03:30:00.655Z,12.05
2022-12-31T03:31:00.744Z,12.04
2022-12-31T03:32:00.615Z,12.05
2022-12-31T03:33:00.610Z,12.04
2022-12-31T03:34:00.591Z,12.07
2022-12-31T03:35:00.584Z,12.07
2022-12-31T03:36:00.565Z,12.01
2022-12-31T03:37:00.561Z,12.04
2022-12-31T03:38:00.572Z,12.04
2022-12-31T03:39:00.533Z,12.04
2022-12-31T03:40:00.526Z,12.00
2022-12-31T03:41:00.514Z,12.00
2022-12-31T03:42:00.502Z,12.03
2022-12-31T03:43:00.499Z,12.00
2022-12-31T03:44:00.481Z,12.04
2022-12-31T03:45:00.476Z,12.04
2022-12-31T03:46:00.517Z,11.97
2022-12-31T03:47:00.452Z,12.00
2022-12-31T03:48:00.436Z,11.97
2022-12-31T03:49:00.428Z,11.96
2022-12-31T03:50:00.422Z,11.96
2022-12-31T03:51:00.411Z,11.93
2022-12-31T03:52:00.409Z,11.96
2022-12-31T03:53:00.388Z,11.96
2022-12-31T03:54:00.409Z,11.96
2022-12-31T03:55:00.361Z,11.96
2022-12-31T03:56:00.360Z,11.96
2022-12-31T03:57:00.594Z,11.97
2022-12-31T03:58:00.335Z,11.97
2022-12-31T03:59:00.333Z,12.01
2022-12-31T04:00:00.335Z,12.00
2022-12-31T04:01:00.462Z,11.98
2022-12-31T04:02:00.428Z,11.98
2022-12-31T04:03:00.299Z,11.98
2022-12-31T04:04:00.265Z,11.97
2022-12-31T04:05:00.252Z,12.01
2022-12-31T04:06:00.244Z,12.00
2022-12-31T04:07:00.231Z,11.96
2022-12-31T04:08:00.221Z,11.96
2022-12-31T04:09:00.207Z,11.93
2022-12-31T04:10:00.224Z,11.93
2022-12-31T04:11:00.192Z,11.90
2022-12-31T04:12:00.175Z,11.93
2022-12-31T04:13:00.170Z,11.93
2022-12-31T04:14:00.156Z,11.88
2022-12-31T04:15:00.158Z,11.90
2022-12-31T04:16:00.240Z,11.87
2022-12-31T04:17:00.123Z,11.88
2022-12-31T04:18:00.168Z,11.85
2022-12-31T04:19:00.103Z,11.88
2022-12-31T04:20:00.122Z,11.82
2022-12-31T04:21:00.124Z,11.79
2022-12-31T04:22:00.080Z,11.82
2022-12-31T04:23:00.064Z,11.78
2022-12-31T04:24:00.049Z,11.81
2022-12-31T04:25:00.049Z,11.77
2022-12-31T04:26:00.055Z,11.75
2022-12-31T04:27:07.103Z,11.78
2022-12-31T04:28:01.048Z,11.74
2022-12-31T04:28:59.992Z,11.72
2022-12-31T04:29:59.982Z,11.70
2022-12-31T04:30:59.974Z,11.70
2022-12-31T04:31:59.980Z,11.72
2022-12-31T04:32:59.948Z,11.70
2022-12-31T04:33:59.935Z,11.69
2022-12-31T04:34:59.929Z,11.70
2022-12-31T04:35:59.917Z,11.67
2022-12-31T04:36:59.903Z,11.69
2022-12-31T04:37:59.891Z,11.63
2022-12-31T04:38:59.882Z,11.64
2022-12-31T04:40:05.392Z,11.64
2022-12-31T04:40:59.858Z,11.62
2022-12-31T04:41:59.868Z,11.60
2022-12-31T04:42:59.839Z,11.56
2022-12-31T04:43:59.826Z,11.57
2022-12-31T04:44:59.814Z,11.60
2022-12-31T04:45:59.869Z,11.57
2022-12-31T04:46:59.795Z,11.56
2022-12-31T04:47:59.786Z,11.56
2022-12-31T04:48:59.794Z,11.57
2022-12-31T04:49:59.778Z,11.57
2022-12-31T04:50:59.767Z,11.54
2022-12-31T04:51:59.732Z,11.53
2022-12-31T04:52:59.728Z,11.59
2022-12-31T04:53:59.720Z,11.59
2022-12-31T04:54:59.706Z,11.56
2022-12-31T04:55:59.696Z,11.57
2022-12-31T04:56:59.682Z,11.56
2022-12-31T04:57:59.689Z,11.56
2022-12-31T04:58:59.666Z,11.54
2022-12-31T04:59:59.645Z,11.56
2022-12-31T05:00:59.691Z,11.49
2022-12-31T05:01:59.840Z,11.51
2022-12-31T05:02:59.662Z,11.51
2022-12-31T05:03:59.609Z,11.51
2022-12-31T05:04:59.591Z,11.54
2022-12-31T05:05:59.585Z,11.49
2022-12-31T05:06:59.568Z,11.51
2022-12-31T05:07:59.557Z,11.51
2022-12-31T05:08:59.548Z,11.53
2022-12-31T05:09:59.535Z,11.51
2022-12-31T05:10:59.526Z,11.51
2022-12-31T05:11:59.512Z,11.49
2022-12-31T05:12:59.502Z,11.51
2022-12-31T05:13:59.520Z,11.49
2022-12-31T05:14:59.485Z,11.48
2022-12-31T05:15:59.475Z,11.49
2022-12-31T05:16:59.583Z,11.48
2022-12-31T05:17:59.447Z,11.48
2022-12-31T05:18:59.442Z,11.46
2022-12-31T05:19:59.435Z,11.48
2022-12-31T05:20:59.421Z,11.46
2022-12-31T05:21:59.402Z,11.46
2022-12-31T05:22:59.394Z,11.48
2022-12-31T05:23:59.382Z,11.45
2022-12-31T05:24:59.397Z,11.42
2022-12-31T05:25:59.367Z,11.45
2022-12-31T05:26:59.345Z,11.45
2022-12-31T05:27:59.336Z,11.45
2022-12-31T05:28:59.329Z,11.42
2022-12-31T05:29:59.358Z,11.41
2022-12-31T05:30:59.312Z,11.39
2022-12-31T05:31:59.290Z,11.42
2022-12-31T05:32:59.290Z,11.42
2022-12-31T05:33:59.273Z,11.42
2022-12-31T05:34:59.261Z,11.42
2022-12-31T05:35:59.260Z,11.41
2022-12-31T05:36:59.240Z,11.42
2022-12-31T05:37:59.226Z,11.41
2022-12-31T05:38:59.214Z,11.38
2022-12-31T05:39:59.202Z,11.38
2022-12-31T05:40:59.197Z,11.36
2022-12-31T05:41:59.181Z,11.36
2022-12-31T05:42:59.167Z,11.35
2022-12-31T05:43:59.157Z,11.38
2022-12-31T05:44:59.150Z,11.33
2022-12-31T05:45:59.231Z,11.38
2022-12-31T05:46:59.126Z,11.33
2022-12-31T05:47:59.144Z,11.35
2022-12-31T05:48:59.103Z,11.36
2022-12-31T05:49:59.095Z,11.35
2022-12-31T05:50:59.079Z,11.35
2022-12-31T05:51:59.067Z,11.35
2022-12-31T05:52:59.056Z,11.31
2022-12-31T05:53:59.044Z,11.31
2022-12-31T05:54:59.046Z,11.36
2022-12-31T05:55:59.046Z,11.35
2022-12-31T05:56:59.014Z,11.36
2022-12-31T05:57:59.002Z,11.39
2022-12-31T05:58:58.991Z,11.35
2022-12-31T05:59:58.975Z,11.31
2022-12-31T06:00:59.062Z,11.31
2022-12-31T06:01:58.986Z,11.35
2022-12-31T06:02:59.033Z,11.35
2022-12-31T06:03:59.004Z,11.30
2022-12-31T06:04:58.920Z,11.31
2022-12-31T06:05:58.905Z,11.31
2022-12-31T06:06:58.906Z,11.28
2022-12-31T06:07:58.913Z,11.30
2022-12-31T06:08:58.888Z,11.28
2022-12-31T06:09:58.867Z,11.30
2022-12-31T06:10:58.856Z,11.30
2022-12-31T06:11:58.844Z,11.31
2022-12-31T06:12:58.838Z,11.31
2022-12-31T06:13:58.841Z,11.27
2022-12-31T06:14:58.815Z,11.27
2022-12-31T06:15:58.864Z,11.28
2022-12-31T06:16:58.790Z,11.31
2022-12-31T06:17:58.796Z,11.31
2022-12-31T06:18:58.768Z,11.28
2022-12-31T06:19:58.765Z,11.27
2022-12-31T06:20:58.744Z,11.26
2022-12-31T06:21:58.733Z,11.28
2022-12-31T06:22:58.742Z,11.35
2022-12-31T06:23:58.734Z,11.38
2022-12-31T06:24:58.703Z,11.36
2022-12-31T06:25:58.689Z,11.35
2022-12-31T06:26:58.675Z,11.35
2022-12-31T06:27:58.670Z,11.35
2022-12-31T06:28:58.805Z,11.35
2022-12-31T06:29:58.642Z,11.39
2022-12-31T06:30:58.731Z,11.41
2022-12-31T06:31:58.619Z,11.41
2022-12-31T06:32:58.616Z,11.41
2022-12-31T06:33:58.624Z,11.42
2022-12-31T06:34:58.592Z,11.39
2022-12-31T06:35:58.629Z,11.41
2022-12-31T06:36:58.563Z,11.42
2022-12-31T06:37:58.554Z,11.44
2022-12-31T06:38:58.549Z,11.46
2022-12-31T06:39:58.530Z,11.45
2022-12-31T06:40:58.531Z,11.42
2022-12-31T06:41:58.505Z,11.42
2022-12-31T06:43:00.448Z,11.42
2022-12-31T06:43:58.504Z,11.41
2022-12-31T06:44:58.482Z,11.41
2022-12-31T06:45:58.463Z,11.39
2022-12-31T06:46:58.470Z,11.41
2022-12-31T06:47:58.440Z,11.41
2022-12-31T06:48:58.427Z,11.44
2022-12-31T06:49:58.451Z,11.44
2022-12-31T06:50:58.405Z,11.42
2022-12-31T06:51:58.393Z,11.42
2022-12-31T06:52:58.382Z,11.42
2022-12-31T06:53:58.375Z,11.42
2022-12-31T06:54:58.359Z,11.44
2022-12-31T06:55:58.351Z,11.45
2022-12-31T06:56:58.341Z,11.44
2022-12-31T06:57:58.333Z,11.44
2022-12-31T06:58:58.319Z,11.45
2022-12-31T06:59:58.304Z,11.45
2022-12-31T07:00:58.328Z,11.39
2022-12-31T07:01:58.435Z,11.38
2022-12-31T07:02:58.328Z,11.41
2022-12-31T07:03:58.259Z,11.36
2022-12-31T07:04:58.248Z,11.38
2022-12-31T07:05:58.270Z,11.35
2022-12-31T07:06:58.232Z,11.38
2022-12-31T07:07:58.213Z,11.35
2022-12-31T07:08:58.200Z,11.35
2022-12-31T07:09:58.191Z,11.36
2022-12-31T07:10:58.177Z,11.33
2022-12-31T07:11:58.168Z,11.33
2022-12-31T07:12:58.154Z,11.33
2022-12-31T07:13:58.147Z,11.36
2022-12-31T07:14:58.149Z,11.36
2022-12-31T07:15:58.243Z,11.35
2022-12-31T07:16:58.132Z,11.39
2022-12-31T07:17:58.099Z,11.38
2022-12-31T07:18:58.087Z,11.39
2022-12-31T07:19:58.164Z,11.36
2022-12-31T07:20:58.067Z,11.38
2022-12-31T07:21:58.093Z,11.36
2022-12-31T07:22:58.043Z,11.36
2022-12-31T07:23:58.037Z,11.36
2022-12-31T07:24:58.026Z,11.39
2022-12-31T07:25:58.014Z,11.38
2022-12-31T07:26:58.011Z,11.38
2022-12-31T07:27:57.988Z,11.36
2022-12-31T07:28:57.976Z,11.36
2022-12-31T07:29:57.968Z,11.38
2022-12-31T07:30:58.035Z,11.35
2022-12-31T07:31:57.945Z,11.35
2022-12-31T07:32:57.934Z,11.36
2022-12-31T07:33:57.925Z,11.38
2022-12-31T07:34:57.913Z,11.36
2022-12-31T07:35:57.899Z,11.38
2022-12-31T07:36:57.892Z,11.31
2022-12-31T07:37:57.902Z,11.35
2022-12-31T07:38:57.863Z,11.36
2022-12-31T07:39:57.853Z,11.33
2022-12-31T07:40:58.648Z,11.31
2022-12-31T07:41:57.855Z,11.36
2022-12-31T07:42:57.820Z,11.38
2022-12-31T07:43:57.808Z,11.35
2022-12-31T07:44:57.809Z,11.36
2022-12-31T07:45:58.035Z,11.36
2022-12-31T07:46:58.162Z,11.38
2022-12-31T07:48:02.432Z,11.39
2022-12-31T07:48:57.752Z,11.36
2022-12-31T07:49:57.759Z,11.38
2022-12-31T07:50:58.132Z,11.39
2022-12-31T07:51:57.975Z,11.36
2022-12-31T07:52:57.708Z,11.35
2022-12-31T07:53:57.718Z,11.36
2022-12-31T07:54:57.697Z,11.39
2022-12-31T07:55:57.676Z,11.35
2022-12-31T07:56:57.662Z,11.35
2022-12-31T07:57:57.655Z,11.39
2022-12-31T07:58:57.639Z,11.38
2022-12-31T07:59:57.631Z,11.39
2022-12-31T08:00:57.718Z,11.46
2022-12-31T08:01:57.725Z,11.53
2022-12-31T08:02:57.599Z,11.49
2022-12-31T08:03:57.616Z,11.54
2022-12-31T08:04:57.573Z,11.49
2022-12-31T08:05:57.572Z,11.54
2022-12-31T08:06:57.594Z,11.56
2022-12-31T08:07:57.541Z,11.57
2022-12-31T08:08:57.532Z,11.56
2022-12-31T08:09:57.550Z,11.62
2022-12-31T08:10:57.507Z,11.62
2022-12-31T08:11:57.499Z,11.62
2022-12-31T08:12:57.484Z,11.62
2022-12-31T08:13:57.477Z,11.63
2022-12-31T08:14:57.472Z,11.57
2022-12-31T08:15:57.524Z,11.59
2022-12-31T08:16:57.445Z,11.60
2022-12-31T08:17:57.431Z,11.62
2022-12-31T08:18:57.422Z,11.63
2022-12-31T08:19:57.411Z,11.67
2022-12-31T08:20:57.397Z,11.72
2022-12-31T08:21:57.387Z,11.66
2022-12-31T08:22:57.379Z,11.70
2022-12-31T08:23:57.364Z,11.70
2022-12-31T08:24:57.351Z,11.70
2022-12-31T08:25:57.381Z,11.70
2022-12-31T08:26:57.342Z,11.77
2022-12-31T08:27:57.321Z,11.74
2022-12-31T08:28:57.309Z,11.72
2022-12-31T08:29:57.299Z,11.74
2022-12-31T08:30:57.295Z,11.74
2022-12-31T08:31:57.330Z,11.74
2022-12-31T08:32:57.266Z,11.81
2022-12-31T08:34:00.746Z,11.79
2022-12-31T08:34:58.270Z,11.78
2022-12-31T08:35:57.241Z,11.79
2022-12-31T08:36:57.219Z,11.79
2022-12-31T08:37:57.218Z,11.78
2022-12-31T08:38:57.200Z,11.84
2022-12-31T08:39:57.190Z,11.85
2022-12-31T08:40:57.173Z,11.82
2022-12-31T08:41:57.305Z,11.84
2022-12-31T08:42:57.152Z,11.85
2022-12-31T08:43:57.143Z,11.85
2022-12-31T08:44:57.137Z,11.87
2022-12-31T08:45:57.233Z,11.87
2022-12-31T08:46:57.107Z,11.94
2022-12-31T08:48:00.017Z,11.97
2022-12-31T08:48:57.083Z,11.93
2022-12-31T08:49:57.076Z,11.94
2022-12-31T08:50:57.061Z,12.00
2022-12-31T08:51:57.060Z,11.97
2022-12-31T08:52:57.040Z,11.97
2022-12-31T08:53:57.029Z,12.00
2022-12-31T08:54:57.034Z,12.03
2022-12-31T08:55:57.005Z,12.00
2022-12-31T08:56:56.998Z,12.04
2022-12-31T08:57:57.009Z,12.01
2022-12-31T08:58:56.970Z,12.03
2022-12-31T08:59:56.966Z,12.00
2022-12-31T09:00:57.069Z,12.03
2022-12-31T09:01:57.067Z,12.00
2022-12-31T09:02:56.925Z,12.05
2022-12-31T09:03:57.020Z,12.05
2022-12-31T09:04:56.907Z,12.08
2022-12-31T09:05:56.895Z,12.05
2022-12-31T09:06:56.897Z,12.05
2022-12-31T09:07:56.868Z,12.05
2022-12-31T09:08:56.858Z,12.04
2022-12-31T09:09:56.848Z,12.08
2022-12-31T09:10:56.834Z,12.05
2022-12-31T09:11:56.837Z,12.08
2022-12-31T09:12:56.827Z,12.08
2022-12-31T09:13:56.828Z,12.05
2022-12-31T09:14:56.790Z,12.11
2022-12-31T09:15:56.780Z,12.07
2022-12-31T09:16:56.817Z,12.11
2022-12-31T09:17:56.756Z,12.12
2022-12-31T09:18:56.745Z,12.12
2022-12-31T09:19:56.744Z,12.11
2022-12-31T09:20:56.725Z,12.08
2022-12-31T09:21:56.715Z,12.08
2022-12-31T09:22:56.706Z,12.11
2022-12-31T09:23:56.715Z,12.11
2022-12-31T09:24:56.726Z,12.12
2022-12-31T09:25:56.685Z,12.13
2022-12-31T09:26:56.661Z,12.13
2022-12-31T09:27:56.649Z,12.12
2022-12-31T09:28:56.679Z,12.12
2022-12-31T09:29:56.696Z,12.11
2022-12-31T09:30:56.689Z,12.16
2022-12-31T09:31:56.766Z,12.16
2022-12-31T09:33:00.854Z,12.19
2022-12-31T09:33:56.641Z,12.15
2022-12-31T09:34:56.579Z,12.18
2022-12-31T09:35:56.562Z,12.19
2022-12-31T09:36:56.550Z,12.18
2022-12-31T09:37:56.542Z,12.19
2022-12-31T09:38:56.525Z,12.21
2022-12-31T09:39:56.514Z,12.18
2022-12-31T09:40:56.502Z,12.22
2022-12-31T09:41:56.495Z,12.18
2022-12-31T09:42:56.481Z,12.19
2022-12-31T09:44:00.984Z,12.21
2022-12-31T09:44:56.462Z,12.18
2022-12-31T09:45:56.532Z,12.19
2022-12-31T09:46:56.438Z,12.18
2022-12-31T09:47:56.441Z,12.23
2022-12-31T09:48:56.416Z,12.21
2022-12-31T09:49:56.415Z,12.26
2022-12-31T09:50:56.403Z,12.29
2022-12-31T09:51:56.385Z,12.26
2022-12-31T09:52:56.371Z,12.29
2022-12-31T09:53:56.364Z,12.30
2022-12-31T09:54:56.346Z,12.30
2022-12-31T09:55:56.348Z,12.34
2022-12-31T09:56:59.208Z,12.36
2022-12-31T09:57:56.331Z,12.36
2022-12-31T09:58:56.303Z,12.36
2022-12-31T09:59:56.297Z,12.38
2022-12-31T10:00:56.492Z,12.41
2022-12-31T10:01:56.422Z,12.46
2022-12-31T10:02:56.322Z,12.46
2022-12-31T10:03:56.260Z,12.41
2022-12-31T10:04:56.253Z,12.44
2022-12-31T10:05:56.223Z,12.49
2022-12-31T10:06:56.208Z,12.46
2022-12-31T10:07:56.202Z,12.49
2022-12-31T10:08:56.185Z,12.52
2022-12-31T10:09:56.176Z,12.52
2022-12-31T10:10:56.163Z,12.55
2022-12-31T10:11:56.150Z,12.59
2022-12-31T10:12:56.139Z,12.61
2022-12-31T10:13:56.124Z,12.69
2022-12-31T10:14:56.111Z,12.67
2022-12-31T10:15:56.103Z,12.67
2022-12-31T10:16:56.150Z,12.69
2022-12-31T10:17:56.104Z,12.69
2022-12-31T10:18:56.067Z,12.74
2022-12-31T10:19:56.057Z,12.74
2022-12-31T10:20:56.043Z,12.79
2022-12-31T10:21:56.035Z,12.77
2022-12-31T10:22:56.022Z,12.76
2022-12-31T10:23:56.012Z,12.79
2022-12-31T10:24:56.012Z,12.84
2022-12-31T10:25:55.995Z,12.84
2022-12-31T10:26:55.978Z,12.85
2022-12-31T10:27:55.973Z,12.85
2022-12-31T10:28:55.956Z,12.87
2022-12-31T10:29:55.961Z,12.91
2022-12-31T10:30:55.938Z,12.95
2022-12-31T10:31:55.919Z,12.92
2022-12-31T10:32:55.907Z,12.95
2022-12-31T10:33:55.918Z,12.92
2022-12-31T10:34:55.900Z,12.94
2022-12-31T10:35:55.881Z,12.96
2022-12-31T10:36:55.860Z,12.89
2022-12-31T10:37:55.852Z,12.98
2022-12-31T10:38:55.839Z,12.96
2022-12-31T10:39:55.832Z,13.01
2022-12-31T10:40:55.816Z,13.10
2022-12-31T10:41:55.808Z,13.04
2022-12-31T10:42:55.794Z,13.06
2022-12-31T10:43:55.786Z,13.12
2022-12-31T10:44:55.771Z,13.12
2022-12-31T10:45:55.777Z,13.10
2022-12-31T10:46:55.756Z,13.17
2022-12-31T10:47:55.737Z,13.22
2022-12-31T10:48:55.745Z,13.19
2022-12-31T10:49:55.799Z,13.24
2022-12-31T10:50:55.705Z,13.27
2022-12-31T10:51:55.691Z,13.29
2022-12-31T10:52:55.683Z,13.27
2022-12-31T10:53:55.673Z,13.29
2022-12-31T10:54:55.663Z,13.35
2022-12-31T10:55:55.651Z,13.35
2022-12-31T10:56:55.637Z,13.38
2022-12-31T10:58:01.862Z,13.38
2022-12-31T10:58:56.637Z,13.38
2022-12-31T10:59:55.605Z,13.39
2022-12-31T11:00:55.605Z,13.38
2022-12-31T11:01:55.660Z,13.41
2022-12-31T11:02:55.648Z,13.43
2022-12-31T11:03:55.559Z,13.43
2022-12-31T11:04:55.547Z,13.47
2022-12-31T11:05:55.560Z,13.50
2022-12-31T11:06:55.530Z,13.47
2022-12-31T11:07:55.510Z,13.48
2022-12-31T11:08:55.502Z,13.51
2022-12-31T11:09:55.491Z,13.51
2022-12-31T11:10:55.483Z,13.51
2022-12-31T11:11:55.469Z,13.53
2022-12-31T11:12:55.461Z,13.51
2022-12-31T11:13:55.444Z,13.55
2022-12-31T11:14:55.439Z,13.51
2022-12-31T11:15:55.456Z,13.55
2022-12-31T11:16:55.416Z,13.57
2022-12-31T11:17:55.407Z,13.57
2022-12-31T11:18:55.391Z,13.59
2022-12-31T11:19:55.379Z,13.61
2022-12-31T11:20:55.369Z,13.57
2022-12-31T11:21:55.379Z,13.61
2022-12-31T11:22:55.353Z,13.61
2022-12-31T11:23:55.350Z,13.59
2022-12-31T11:24:55.342Z,13.61
2022-12-31T11:25:55.309Z,13.65
2022-12-31T11:26:55.302Z,13.68
2022-12-31T11:27:55.291Z,13.79
2022-12-31T11:28:55.280Z,13.88
2022-12-31T11:29:55.274Z,13.93
2022-12-31T11:30:55.302Z,13.88
2022-12-31T11:31:55.242Z,13.98
2022-12-31T11:32:55.240Z,14.01
2022-12-31T11:33:55.227Z,13.96
2022-12-31T11:34:55.209Z,13.91
2022-12-31T11:35:55.201Z,13.94
2022-12-31T11:36:55.197Z,13.84
2022-12-31T11:37:55.300Z,13.86
2022-12-31T11:38:55.164Z,13.81
2022-12-31T11:39:55.159Z,13.81
2022-12-31T11:40:55.146Z,13.75
2022-12-31T11:41:55.141Z,13.79
2022-12-31T11:42:55.121Z,13.80
2022-12-31T11:43:55.109Z,13.81
2022-12-31T11:44:55.110Z,13.83
2022-12-31T11:45:55.090Z,13.87
2022-12-31T11:46:55.084Z,13.87
2022-12-31T11:48:29.261Z,13.87
2022-12-31T11:48:56.081Z,13.87
2022-12-31T11:49:55.043Z,13.87
2022-12-31T11:50:55.035Z,13.86
2022-12-31T11:51:55.021Z,13.81
2022-12-31T11:52:55.017Z,13.81
2022-12-31T11:53:55.031Z,13.86
2022-12-31T11:54:54.991Z,13.87
2022-12-31T11:55:54.977Z,13.93
2022-12-31T11:56:54.968Z,13.90
2022-12-31T11:57:54.956Z,13.86
2022-12-31T11:58:54.968Z,13.88
2022-12-31T11:59:54.931Z,13.88
2022-12-31T12:00:54.934Z,13.94
2022-12-31T12:01:54.918Z,13.99
2022-12-31T12:02:54.946Z,14.02
2022-12-31T12:03:54.938Z,14.04
2022-12-31T12:04:54.887Z,14.05
2022-12-31T12:05:54.874Z,14.04
2022-12-31T12:06:54.872Z,14.01
2022-12-31T12:07:54.849Z,14.02
2022-12-31T12:08:54.834Z,14.04
2022-12-31T12:09:54.853Z,14.01
2022-12-31T12:10:54.818Z,14.05
2022-12-31T12:11:54.800Z,14.08
2022-12-31T12:12:54.793Z,14.08
2022-12-31T12:13:54.775Z,14.02
2022-12-31T12:14:54.795Z,14.06
2022-12-31T12:15:54.843Z,14.05
2022-12-31T12:16:59.062Z,14.04
2022-12-31T12:17:55.760Z,14.04
2022-12-31T12:18:54.727Z,13.94
2022-12-31T12:19:54.731Z,14.02
2022-12-31T12:20:54.703Z,13.99
2022-12-31T12:21:54.708Z,14.02
2022-12-31T12:22:54.679Z,14.06
2022-12-31T12:23:54.664Z,14.12
2022-12-31T12:24:54.658Z,14.17
2022-12-31T12:25:54.681Z,14.19
2022-12-31T12:26:54.634Z,14.17
2022-12-31T12:27:54.627Z,14.16
2022-12-31T12:28:54.617Z,14.13
2022-12-31T12:29:54.608Z,14.12
2022-12-31T12:30:54.690Z,14.11
2022-12-31T12:31:54.577Z,14.16
2022-12-31T12:32:54.569Z,14.09
2022-12-31T12:33:54.653Z,14.08
2022-12-31T12:34:54.577Z,14.02
2022-12-31T12:35:54.534Z,14.04
2022-12-31T12:36:54.534Z,14.04
2022-12-31T12:37:54.508Z,14.01
2022-12-31T12:38:54.546Z,14.04
2022-12-31T12:39:54.487Z,14.06
2022-12-31T12:40:54.476Z,14.05
2022-12-31T12:41:54.484Z,14.06
2022-12-31T12:42:54.462Z,14.11
2022-12-31T12:43:54.639Z,14.08
2022-12-31T12:44:54.430Z,14.05
2022-12-31T12:45:54.415Z,14.05
2022-12-31T12:46:54.464Z,14.06
2022-12-31T12:47:54.393Z,14.01
2022-12-31T12:48:54.393Z,14.06
2022-12-31T12:49:54.371Z,14.05
2022-12-31T12:50:54.362Z,14.06
2022-12-31T12:51:54.346Z,14.09
2022-12-31T12:52:59.214Z,14.08